sensor_id;sensor_type;location;lat;lon;timestamp;temperature;humidity
935;DHT22;454;53.254;10.400;2022-08-30T04:01:49;16.40;99.90
935;DHT22;454;53.254;10.400;2022-08-30T04:04:15;16.40;99.90
935;DHT22;454;53.254;10.400;2022-08-30T04:06:42;16.40;99.90
935;DHT22;454;53.254;10.400;2022-08-30T04:09:09;16.40;99.90
935;DHT22;454;53.254;10.400;2022-08-30T04:11:36;16.40;99.90
935;DHT22;454;53.254;10.400;2022-08-30T04:14:03;16.40;99.90
935;DHT22;454;53.254;10.400;2022-08-30T04:16:30;16.40;99.90
935;DHT22;454;53.254;10.400;2022-08-30T04:18:58;16.40;99.90
935;DHT22;454;53.254;10.400;2022-08-30T04:21:25;16.40;99.90
935;DHT22;454;53.254;10.400;2022-08-30T04:23:52;16.40;99.90
935;DHT22;454;53.254;10.400;2022-08-30T04:26:19;16.40;99.90
935;DHT22;454;53.254;10.400;2022-08-30T04:28:46;16.40;99.90
935;DHT22;454;53.254;10.400;2022-08-30T04:31:15;16.40;99.90
935;DHT22;454;53.254;10.400;2022-08-30T04:33:43;16.40;99.90
935;DHT22;454;53.254;10.400;2022-08-30T04:36:12;16.40;99.90
935;DHT22;454;53.254;10.400;2022-08-30T04:38:40;16.40;99.90
935;DHT22;454;53.254;10.400;2022-08-30T04:41:09;16.40;99.90
935;DHT22;454;53.254;10.400;2022-08-30T04:43:36;16.40;99.90
935;DHT22;454;53.254;10.400;2022-08-30T04:46:05;16.40;99.90
935;DHT22;454;53.254;10.400;2022-08-30T04:48:32;16.40;99.90
935;DHT22;454;53.254;10.400;2022-08-30T04:50:58;16.40;99.90
935;DHT22;454;53.254;10.400;2022-08-30T04:53:26;16.40;99.90
935;DHT22;454;53.254;10.400;2022-08-30T04:55:53;16.40;99.90
935;DHT22;454;53.254;10.400;2022-08-30T04:58:20;16.40;99.90
935;DHT22;454;53.254;10.400;2022-08-30T05:00:46;16.40;99.90
935;DHT22;454;53.254;10.400;2022-08-30T05:03:13;16.40;99.90
935;DHT22;454;53.254;10.400;2022-08-30T05:05:46;16.40;99.90
935;DHT22;454;53.254;10.400;2022-08-30T05:08:15;16.40;99.90
935;DHT22;454;53.254;10.400;2022-08-30T05:10:45;16.40;99.90
935;DHT22;454;53.254;10.400;2022-08-30T05:13:13;16.40;99.90
935;DHT22;454;53.254;10.400;2022-08-30T05:15:41;16.40;99.90
935;DHT22;454;53.254;10.400;2022-08-30T05:18:09;16.40;99.90
935;DHT22;454;53.254;10.400;2022-08-30T05:20:37;16.50;99.90
935;DHT22;454;53.254;10.400;2022-08-30T05:23:05;16.50;99.90
935;DHT22;454;53.254;10.400;2022-08-30T05:25:35;16.50;99.90
935;DHT22;454;53.254;10.400;2022-08-30T05:28:04;16.50;99.90
935;DHT22;454;53.254;10.400;2022-08-30T05:30:33;16.50;99.90
935;DHT22;454;53.254;10.400;2022-08-30T05:33:00;16.50;99.90
935;DHT22;454;53.254;10.400;2022-08-30T05:35:28;16.60;99.90
935;DHT22;454;53.254;10.400;2022-08-30T05:37:54;16.50;99.90
935;DHT22;454;53.254;10.400;2022-08-30T05:40:22;16.60;99.90
935;DHT22;454;53.254;10.400;2022-08-30T05:42:49;16.60;99.90
935;DHT22;454;53.254;10.400;2022-08-30T05:45:17;16.60;99.90
935;DHT22;454;53.254;10.400;2022-08-30T05:47:44;16.60;99.90
935;DHT22;454;53.254;10.400;2022-08-30T05:50:12;16.50;99.90
935;DHT22;454;53.254;10.400;2022-08-30T05:52:40;16.60;99.90
935;DHT22;454;53.254;10.400;2022-08-30T05:55:09;16.60;99.90
935;DHT22;454;53.254;10.400;2022-08-30T05:57:38;16.60;99.90
935;DHT22;454;53.254;10.400;2022-08-30T06:00:09;16.70;99.90
935;DHT22;454;53.254;10.400;2022-08-30T06:02:37;16.70;99.90
935;DHT22;454;53.254;10.400;2022-08-30T06:05:04;16.70;99.90
935;DHT22;454;53.254;10.400;2022-08-30T06:07:32;16.80;99.90
935;DHT22;454;53.254;10.400;2022-08-30T06:09:59;16.80;99.90
935;DHT22;454;53.254;10.400;2022-08-30T06:12:26;16.90;99.90
935;DHT22;454;53.254;10.400;2022-08-30T06:14:53;16.90;99.90
935;DHT22;454;53.254;10.400;2022-08-30T06:17:19;17.00;99.90
935;DHT22;454;53.254;10.400;2022-08-30T06:19:47;17.00;99.90
935;DHT22;454;53.254;10.400;2022-08-30T06:22:14;17.10;99.90
935;DHT22;454;53.254;10.400;2022-08-30T06:24:41;17.20;99.90
935;DHT22;454;53.254;10.400;2022-08-30T06:27:09;17.30;99.90
935;DHT22;454;53.254;10.400;2022-08-30T06:29:36;17.40;99.90
935;DHT22;454;53.254;10.400;2022-08-30T06:32:03;17.50;99.90
935;DHT22;454;53.254;10.400;2022-08-30T06:34:29;17.50;99.90
935;DHT22;454;53.254;10.400;2022-08-30T06:36:57;17.50;99.90
935;DHT22;454;53.254;10.400;2022-08-30T06:39:24;17.50;99.90
935;DHT22;454;53.254;10.400;2022-08-30T06:41:51;17.50;99.90
935;DHT22;454;53.254;10.400;2022-08-30T06:44:18;17.60;99.90
935;DHT22;454;53.254;10.400;2022-08-30T06:46:44;17.60;99.90
935;DHT22;454;53.254;10.400;2022-08-30T06:49:12;17.70;99.90
935;DHT22;454;53.254;10.400;2022-08-30T06:51:39;17.80;99.90
935;DHT22;454;53.254;10.400;2022-08-30T06:54:09;17.90;99.90
935;DHT22;454;53.254;10.400;2022-08-30T06:56:36;17.90;99.90
935;DHT22;454;53.254;10.400;2022-08-30T06:59:03;18.00;99.90
935;DHT22;454;53.254;10.400;2022-08-30T07:01:30;18.00;99.90
935;DHT22;454;53.254;10.400;2022-08-30T07:03:57;18.10;99.90
935;DHT22;454;53.254;10.400;2022-08-30T07:06:26;18.10;99.90
935;DHT22;454;53.254;10.400;2022-08-30T07:08:53;18.10;99.90
935;DHT22;454;53.254;10.400;2022-08-30T07:11:33;18.20;99.90
935;DHT22;454;53.254;10.400;2022-08-30T07:14:00;18.30;99.90
935;DHT22;454;53.254;10.400;2022-08-30T07:16:27;18.30;99.90
935;DHT22;454;53.254;10.400;2022-08-30T07:18:55;18.40;99.90
935;DHT22;454;53.254;10.400;2022-08-30T07:21:25;18.30;99.90
935;DHT22;454;53.254;10.400;2022-08-30T07:23:53;18.30;99.90
935;DHT22;454;53.254;10.400;2022-08-30T07:26:23;18.40;99.90
935;DHT22;454;53.254;10.400;2022-08-30T07:28:52;18.50;99.90
935;DHT22;454;53.254;10.400;2022-08-30T07:31:19;18.60;99.90
935;DHT22;454;53.254;10.400;2022-08-30T07:33:47;18.70;99.90
935;DHT22;454;53.254;10.400;2022-08-30T07:36:14;18.70;99.90
935;DHT22;454;53.254;10.400;2022-08-30T07:38:43;18.70;99.90
935;DHT22;454;53.254;10.400;2022-08-30T07:41:15;18.70;99.90
935;DHT22;454;53.254;10.400;2022-08-30T07:43:43;18.90;99.90
935;DHT22;454;53.254;10.400;2022-08-30T07:46:11;19.00;99.90
935;DHT22;454;53.254;10.400;2022-08-30T07:48:37;19.10;99.90
935;DHT22;454;53.254;10.400;2022-08-30T07:51:08;19.20;99.90
935;DHT22;454;53.254;10.400;2022-08-30T07:53:35;19.40;99.90
935;DHT22;454;53.254;10.400;2022-08-30T07:56:02;19.50;99.90
935;DHT22;454;53.254;10.400;2022-08-30T07:58:29;19.70;99.90
935;DHT22;454;53.254;10.400;2022-08-30T08:00:56;20.10;99.90
935;DHT22;454;53.254;10.400;2022-08-30T08:03:25;20.10;99.90
935;DHT22;454;53.254;10.400;2022-08-30T08:05:52;20.20;99.90
935;DHT22;454;53.254;10.400;2022-08-30T08:08:19;20.50;99.90
935;DHT22;454;53.254;10.400;2022-08-30T08:10:46;20.50;99.90
935;DHT22;454;53.254;10.400;2022-08-30T08:13:13;20.60;99.90
935;DHT22;454;53.254;10.400;2022-08-30T08:15:40;20.40;99.90
935;DHT22;454;53.254;10.400;2022-08-30T08:18:06;20.30;99.90
935;DHT22;454;53.254;10.400;2022-08-30T08:20:34;20.30;99.90
935;DHT22;454;53.254;10.400;2022-08-30T08:23:01;20.20;99.90
935;DHT22;454;53.254;10.400;2022-08-30T08:25:28;20.20;99.90
935;DHT22;454;53.254;10.400;2022-08-30T08:27:55;20.40;99.90
935;DHT22;454;53.254;10.400;2022-08-30T08:30:22;20.40;99.90
935;DHT22;454;53.254;10.400;2022-08-30T08:32:49;20.50;99.90
935;DHT22;454;53.254;10.400;2022-08-30T08:35:17;20.70;99.90
935;DHT22;454;53.254;10.400;2022-08-30T08:37:45;20.70;99.90
935;DHT22;454;53.254;10.400;2022-08-30T08:40:15;20.60;99.90
935;DHT22;454;53.254;10.400;2022-08-30T08:42:54;20.60;99.90
935;DHT22;454;53.254;10.400;2022-08-30T08:45:33;20.70;99.90
935;DHT22;454;53.254;10.400;2022-08-30T08:48:07;20.70;99.90
935;DHT22;454;53.254;10.400;2022-08-30T08:50:36;20.70;99.90
935;DHT22;454;53.254;10.400;2022-08-30T08:53:28;20.80;99.90
935;DHT22;454;53.254;10.400;2022-08-30T08:56:02;20.80;99.90
935;DHT22;454;53.254;10.400;2022-08-30T08:58:31;20.80;99.90
935;DHT22;454;53.254;10.400;2022-08-30T09:01:02;20.70;99.90
935;DHT22;454;53.254;10.400;2022-08-30T09:03:29;20.70;99.90
935;DHT22;454;53.254;10.400;2022-08-30T09:05:57;20.80;99.90
935;DHT22;454;53.254;10.400;2022-08-30T09:08:25;20.80;99.90
935;DHT22;454;53.254;10.400;2022-08-30T09:10:54;20.80;99.90
935;DHT22;454;53.254;10.400;2022-08-30T09:13:23;20.90;99.90
935;DHT22;454;53.254;10.400;2022-08-30T09:15:51;20.90;99.90
935;DHT22;454;53.254;10.400;2022-08-30T09:18:19;20.90;99.90
935;DHT22;454;53.254;10.400;2022-08-30T09:20:48;20.90;99.90
935;DHT22;454;53.254;10.400;2022-08-30T09:23:34;20.90;99.90
935;DHT22;454;53.254;10.400;2022-08-30T09:26:02;20.80;99.90
935;DHT22;454;53.254;10.400;2022-08-30T09:28:33;20.80;99.90
935;DHT22;454;53.254;10.400;2022-08-30T09:31:03;20.60;99.90
935;DHT22;454;53.254;10.400;2022-08-30T09:33:30;20.50;99.90
935;DHT22;454;53.254;10.400;2022-08-30T09:36:11;20.50;99.90
935;DHT22;454;53.254;10.400;2022-08-30T09:38:40;20.40;99.90
935;DHT22;454;53.254;10.400;2022-08-30T09:41:25;20.30;99.90
935;DHT22;454;53.254;10.400;2022-08-30T09:44:04;20.20;99.90
935;DHT22;454;53.254;10.400;2022-08-30T09:46:31;20.20;99.90
935;DHT22;454;53.254;10.400;2022-08-30T09:48:58;20.10;99.90
935;DHT22;454;53.254;10.400;2022-08-30T09:51:44;20.20;99.90
935;DHT22;454;53.254;10.400;2022-08-30T09:54:20;20.10;99.90
935;DHT22;454;53.254;10.400;2022-08-30T09:56:56;20.20;99.90
935;DHT22;454;53.254;10.400;2022-08-30T09:59:38;20.30;99.90
935;DHT22;454;53.254;10.400;2022-08-30T10:02:21;20.40;99.90
935;DHT22;454;53.254;10.400;2022-08-30T10:04:54;20.50;99.90
935;DHT22;454;53.254;10.400;2022-08-30T10:07:27;20.60;99.90
935;DHT22;454;53.254;10.400;2022-08-30T10:10:02;20.70;99.90
935;DHT22;454;53.254;10.400;2022-08-30T10:12:34;20.80;99.90
935;DHT22;454;53.254;10.400;2022-08-30T10:15:11;20.80;99.90
935;DHT22;454;53.254;10.400;2022-08-30T10:17:45;20.80;99.90
935;DHT22;454;53.254;10.400;2022-08-30T10:20:20;20.80;99.90
935;DHT22;454;53.254;10.400;2022-08-30T10:22:53;20.90;99.90
935;DHT22;454;53.254;10.400;2022-08-30T10:25:25;21.10;99.90
935;DHT22;454;53.254;10.400;2022-08-30T10:27:57;21.20;99.90
935;DHT22;454;53.254;10.400;2022-08-30T10:30:27;21.20;99.90
935;DHT22;454;53.254;10.400;2022-08-30T10:33:00;21.30;99.90
935;DHT22;454;53.254;10.400;2022-08-30T10:35:35;21.40;99.90
935;DHT22;454;53.254;10.400;2022-08-30T10:38:07;21.40;99.90
935;DHT22;454;53.254;10.400;2022-08-30T10:40:39;21.40;99.90
935;DHT22;454;53.254;10.400;2022-08-30T10:43:29;21.40;99.90
935;DHT22;454;53.254;10.400;2022-08-30T10:46:00;21.50;99.90
935;DHT22;454;53.254;10.400;2022-08-30T10:48:31;21.50;99.90
935;DHT22;454;53.254;10.400;2022-08-30T10:51:06;21.70;99.90
935;DHT22;454;53.254;10.400;2022-08-30T10:53:39;21.80;99.90
935;DHT22;454;53.254;10.400;2022-08-30T10:56:09;21.90;99.90
935;DHT22;454;53.254;10.400;2022-08-30T10:58:37;21.90;99.90
935;DHT22;454;53.254;10.400;2022-08-30T11:01:21;22.00;99.90
935;DHT22;454;53.254;10.400;2022-08-30T11:04:14;22.20;99.90
935;DHT22;454;53.254;10.400;2022-08-30T11:06:54;22.40;99.90
935;DHT22;454;53.254;10.400;2022-08-30T11:09:39;22.50;99.90
935;DHT22;454;53.254;10.400;2022-08-30T11:12:24;22.50;99.90
935;DHT22;454;53.254;10.400;2022-08-30T11:14:53;22.50;99.90
935;DHT22;454;53.254;10.400;2022-08-30T11:17:24;22.40;99.90
935;DHT22;454;53.254;10.400;2022-08-30T11:19:52;22.10;99.90
935;DHT22;454;53.254;10.400;2022-08-30T11:22:23;22.00;99.90
935;DHT22;454;53.254;10.400;2022-08-30T11:25:06;22.00;99.90
935;DHT22;454;53.254;10.400;2022-08-30T11:27:46;22.00;99.90
935;DHT22;454;53.254;10.400;2022-08-30T11:30:46;21.60;99.90
935;DHT22;454;53.254;10.400;2022-08-30T11:33:42;21.50;99.90
935;DHT22;454;53.254;10.400;2022-08-30T11:36:11;21.50;99.90
935;DHT22;454;53.254;10.400;2022-08-30T11:38:59;21.60;99.90
935;DHT22;454;53.254;10.400;2022-08-30T11:41:31;21.70;99.90
935;DHT22;454;53.254;10.400;2022-08-30T11:44:28;21.70;99.90
935;DHT22;454;53.254;10.400;2022-08-30T11:46:56;21.90;99.90
935;DHT22;454;53.254;10.400;2022-08-30T11:49:50;21.80;99.90
935;DHT22;454;53.254;10.400;2022-08-30T11:52:32;21.80;99.90
935;DHT22;454;53.254;10.400;2022-08-30T11:55:24;21.80;99.90
935;DHT22;454;53.254;10.400;2022-08-30T11:57:57;21.80;99.90
935;DHT22;454;53.254;10.400;2022-08-30T12:00:30;21.70;99.90
935;DHT22;454;53.254;10.400;2022-08-30T12:03:00;21.60;99.90
935;DHT22;454;53.254;10.400;2022-08-30T12:05:48;21.60;99.90
935;DHT22;454;53.254;10.400;2022-08-30T12:08:42;21.60;99.90
935;DHT22;454;53.254;10.400;2022-08-30T12:14:06;21.70;99.90
935;DHT22;454;53.254;10.400;2022-08-30T12:16:38;21.70;99.90
935;DHT22;454;53.254;10.400;2022-08-30T12:19:28;21.60;99.90
935;DHT22;454;53.254;10.400;2022-08-30T12:21:56;21.60;99.90
935;DHT22;454;53.254;10.400;2022-08-30T12:24:26;21.50;99.90
935;DHT22;454;53.254;10.400;2022-08-30T12:26:53;21.50;99.90
935;DHT22;454;53.254;10.400;2022-08-30T12:29:24;21.40;99.90
935;DHT22;454;53.254;10.400;2022-08-30T12:31:54;21.40;99.90
935;DHT22;454;53.254;10.400;2022-08-30T12:34:24;21.40;99.90
935;DHT22;454;53.254;10.400;2022-08-30T12:36:58;21.50;99.90
935;DHT22;454;53.254;10.400;2022-08-30T12:39:27;21.50;99.90
935;DHT22;454;53.254;10.400;2022-08-30T12:41:54;21.60;99.90
935;DHT22;454;53.254;10.400;2022-08-30T12:44:24;21.70;99.90
935;DHT22;454;53.254;10.400;2022-08-30T12:46:56;21.60;99.90
935;DHT22;454;53.254;10.400;2022-08-30T12:49:25;21.60;99.90
935;DHT22;454;53.254;10.400;2022-08-30T12:51:53;21.70;99.90
935;DHT22;454;53.254;10.400;2022-08-30T12:54:22;21.70;99.90
935;DHT22;454;53.254;10.400;2022-08-30T12:56:57;21.80;99.90
935;DHT22;454;53.254;10.400;2022-08-30T12:59:54;21.80;99.90
935;DHT22;454;53.254;10.400;2022-08-30T13:02:25;21.90;99.90
935;DHT22;454;53.254;10.400;2022-08-30T13:04:54;21.90;99.90
935;DHT22;454;53.254;10.400;2022-08-30T13:07:28;22.00;99.90
935;DHT22;454;53.254;10.400;2022-08-30T13:10:12;22.20;99.90
935;DHT22;454;53.254;10.400;2022-08-30T13:12:39;22.10;99.90
935;DHT22;454;53.254;10.400;2022-08-30T13:15:28;22.00;99.90
935;DHT22;454;53.254;10.400;2022-08-30T13:18:18;21.90;99.90
935;DHT22;454;53.254;10.400;2022-08-30T13:20:45;21.90;99.90
935;DHT22;454;53.254;10.400;2022-08-30T13:23:20;21.90;99.90
935;DHT22;454;53.254;10.400;2022-08-30T13:25:47;21.90;99.90
935;DHT22;454;53.254;10.400;2022-08-30T13:28:14;21.70;99.90
935;DHT22;454;53.254;10.400;2022-08-30T13:30:41;21.70;99.90
935;DHT22;454;53.254;10.400;2022-08-30T13:33:08;21.70;99.90
935;DHT22;454;53.254;10.400;2022-08-30T13:35:37;21.50;99.90
935;DHT22;454;53.254;10.400;2022-08-30T13:38:04;21.40;99.90
935;DHT22;454;53.254;10.400;2022-08-30T13:40:31;21.40;99.90
935;DHT22;454;53.254;10.400;2022-08-30T13:42:57;21.40;99.90
935;DHT22;454;53.254;10.400;2022-08-30T13:45:24;21.40;99.90
935;DHT22;454;53.254;10.400;2022-08-30T13:47:51;21.50;99.90
935;DHT22;454;53.254;10.400;2022-08-30T13:50:18;21.50;99.90
935;DHT22;454;53.254;10.400;2022-08-30T13:52:46;21.50;99.90
935;DHT22;454;53.254;10.400;2022-08-30T13:55:12;21.60;99.90
935;DHT22;454;53.254;10.400;2022-08-30T13:57:39;21.60;99.90
935;DHT22;454;53.254;10.400;2022-08-30T14:00:09;21.80;99.90
935;DHT22;454;53.254;10.400;2022-08-30T14:02:37;21.80;99.90
935;DHT22;454;53.254;10.400;2022-08-30T14:05:04;21.70;99.90
935;DHT22;454;53.254;10.400;2022-08-30T14:07:33;21.80;99.90
935;DHT22;454;53.254;10.400;2022-08-30T14:10:01;21.90;99.90
935;DHT22;454;53.254;10.400;2022-08-30T14:12:27;22.00;99.90
935;DHT22;454;53.254;10.400;2022-08-30T14:14:54;22.10;99.90
935;DHT22;454;53.254;10.400;2022-08-30T14:17:21;22.20;99.90
935;DHT22;454;53.254;10.400;2022-08-30T14:19:53;22.10;99.90
935;DHT22;454;53.254;10.400;2022-08-30T14:22:20;22.20;99.90
935;DHT22;454;53.254;10.400;2022-08-30T14:24:47;22.20;99.90
935;DHT22;454;53.254;10.400;2022-08-30T14:27:15;22.20;99.90
935;DHT22;454;53.254;10.400;2022-08-30T14:29:41;22.10;99.90
935;DHT22;454;53.254;10.400;2022-08-30T14:32:08;22.10;99.90
935;DHT22;454;53.254;10.400;2022-08-30T14:34:35;22.00;99.90
935;DHT22;454;53.254;10.400;2022-08-30T14:37:02;22.00;99.90
935;DHT22;454;53.254;10.400;2022-08-30T14:39:31;22.10;99.90
935;DHT22;454;53.254;10.400;2022-08-30T14:41:58;22.10;99.90
935;DHT22;454;53.254;10.400;2022-08-30T14:44:26;22.10;99.90
935;DHT22;454;53.254;10.400;2022-08-30T14:46:53;22.10;99.90
935;DHT22;454;53.254;10.400;2022-08-30T14:49:21;22.10;99.90
935;DHT22;454;53.254;10.400;2022-08-30T14:51:48;22.10;99.90
935;DHT22;454;53.254;10.400;2022-08-30T14:54:16;22.10;99.90
935;DHT22;454;53.254;10.400;2022-08-30T14:56:43;22.20;99.90
935;DHT22;454;53.254;10.400;2022-08-30T14:59:10;22.20;99.90
935;DHT22;454;53.254;10.400;2022-08-30T15:01:39;22.30;99.90
935;DHT22;454;53.254;10.400;2022-08-30T15:04:07;22.30;99.90
935;DHT22;454;53.254;10.400;2022-08-30T15:06:35;22.40;99.90
935;DHT22;454;53.254;10.400;2022-08-30T15:09:03;22.30;99.90
935;DHT22;454;53.254;10.400;2022-08-30T15:11:30;22.10;99.90
935;DHT22;454;53.254;10.400;2022-08-30T15:13:57;22.00;99.90
935;DHT22;454;53.254;10.400;2022-08-30T15:16:27;22.00;99.90
935;DHT22;454;53.254;10.400;2022-08-30T15:18:56;21.90;99.90
935;DHT22;454;53.254;10.400;2022-08-30T15:21:24;21.80;99.90
935;DHT22;454;53.254;10.400;2022-08-30T15:23:52;21.80;99.90
935;DHT22;454;53.254;10.400;2022-08-30T15:26:19;21.70;99.90
935;DHT22;454;53.254;10.400;2022-08-30T15:28:46;21.70;99.90
935;DHT22;454;53.254;10.400;2022-08-30T15:31:13;21.70;99.90
935;DHT22;454;53.254;10.400;2022-08-30T15:33:40;21.60;99.90
935;DHT22;454;53.254;10.400;2022-08-30T15:36:08;21.60;99.90
935;DHT22;454;53.254;10.400;2022-08-30T15:38:35;21.50;99.90
935;DHT22;454;53.254;10.400;2022-08-30T15:41:04;21.50;99.90
935;DHT22;454;53.254;10.400;2022-08-30T15:43:31;21.40;99.90
935;DHT22;454;53.254;10.400;2022-08-30T15:46:16;21.50;99.90
935;DHT22;454;53.254;10.400;2022-08-30T15:48:44;21.60;99.90
935;DHT22;454;53.254;10.400;2022-08-30T15:51:12;21.70;99.90
935;DHT22;454;53.254;10.400;2022-08-30T15:53:41;21.80;99.90
935;DHT22;454;53.254;10.400;2022-08-30T15:56:08;21.70;99.90
935;DHT22;454;53.254;10.400;2022-08-30T15:58:35;21.50;99.90
935;DHT22;454;53.254;10.400;2022-08-30T16:01:02;21.50;99.90
935;DHT22;454;53.254;10.400;2022-08-30T16:03:30;21.50;99.90
935;DHT22;454;53.254;10.400;2022-08-30T16:05:57;21.40;99.90
935;DHT22;454;53.254;10.400;2022-08-30T16:08:26;21.30;99.90
935;DHT22;454;53.254;10.400;2022-08-30T16:10:53;21.20;99.90
935;DHT22;454;53.254;10.400;2022-08-30T16:13:20;21.10;99.90
935;DHT22;454;53.254;10.400;2022-08-30T16:15:46;21.10;99.90
935;DHT22;454;53.254;10.400;2022-08-30T16:18:13;21.00;99.90
935;DHT22;454;53.254;10.400;2022-08-30T16:20:41;21.00;99.90
935;DHT22;454;53.254;10.400;2022-08-30T16:23:08;20.90;99.90
935;DHT22;454;53.254;10.400;2022-08-30T16:25:36;21.00;99.90
935;DHT22;454;53.254;10.400;2022-08-30T16:28:03;21.00;99.90
935;DHT22;454;53.254;10.400;2022-08-30T16:30:30;21.00;99.90
935;DHT22;454;53.254;10.400;2022-08-30T16:32:57;20.90;99.90
935;DHT22;454;53.254;10.400;2022-08-30T16:35:23;20.70;99.90
935;DHT22;454;53.254;10.400;2022-08-30T16:37:50;20.60;99.90
935;DHT22;454;53.254;10.400;2022-08-30T16:40:17;20.50;99.90
935;DHT22;454;53.254;10.400;2022-08-30T16:42:45;20.40;99.90
935;DHT22;454;53.254;10.400;2022-08-30T16:45:12;20.30;99.90
935;DHT22;454;53.254;10.400;2022-08-30T16:47:39;20.20;99.90
935;DHT22;454;53.254;10.400;2022-08-30T16:50:06;20.10;99.90
935;DHT22;454;53.254;10.400;2022-08-30T16:52:35;20.00;99.90
935;DHT22;454;53.254;10.400;2022-08-30T16:55:02;19.90;99.90
935;DHT22;454;53.254;10.400;2022-08-30T16:57:29;19.90;99.90
935;DHT22;454;53.254;10.400;2022-08-30T16:59:57;19.80;99.90
935;DHT22;454;53.254;10.400;2022-08-30T17:02:23;19.80;99.90
935;DHT22;454;53.254;10.400;2022-08-30T17:04:50;19.80;99.90
935;DHT22;454;53.254;10.400;2022-08-30T17:07:17;19.80;99.90
935;DHT22;454;53.254;10.400;2022-08-30T17:09:44;19.80;99.90
935;DHT22;454;53.254;10.400;2022-08-30T17:12:10;19.80;99.90
935;DHT22;454;53.254;10.400;2022-08-30T17:14:37;19.70;99.90
935;DHT22;454;53.254;10.400;2022-08-30T17:17:05;19.70;99.90
935;DHT22;454;53.254;10.400;2022-08-30T17:19:32;19.70;99.90
935;DHT22;454;53.254;10.400;2022-08-30T17:21:58;19.70;99.90
935;DHT22;454;53.254;10.400;2022-08-30T17:24:26;19.60;99.90
935;DHT22;454;53.254;10.400;2022-08-30T17:26:52;19.50;99.90
935;DHT22;454;53.254;10.400;2022-08-30T17:29:19;19.50;99.90
935;DHT22;454;53.254;10.400;2022-08-30T17:31:46;19.50;99.90
935;DHT22;454;53.254;10.400;2022-08-30T17:34:14;19.40;99.90
935;DHT22;454;53.254;10.400;2022-08-30T17:36:42;19.30;99.90
935;DHT22;454;53.254;10.400;2022-08-30T17:39:08;19.30;99.90
935;DHT22;454;53.254;10.400;2022-08-30T17:41:35;19.20;99.90
935;DHT22;454;53.254;10.400;2022-08-30T17:44:02;19.20;99.90
935;DHT22;454;53.254;10.400;2022-08-30T17:46:29;19.10;99.90
935;DHT22;454;53.254;10.400;2022-08-30T17:48:57;19.10;99.90
935;DHT22;454;53.254;10.400;2022-08-30T17:51:25;19.00;99.90
935;DHT22;454;53.254;10.400;2022-08-30T17:53:52;19.00;99.90
935;DHT22;454;53.254;10.400;2022-08-30T17:56:19;18.90;99.90
935;DHT22;454;53.254;10.400;2022-08-30T17:58:45;18.90;99.90
935;DHT22;454;53.254;10.400;2022-08-30T18:01:15;18.70;99.90
935;DHT22;454;53.254;10.400;2022-08-30T18:03:43;18.70;99.90
935;DHT22;454;53.254;10.400;2022-08-30T18:06:09;18.70;99.90
935;DHT22;454;53.254;10.400;2022-08-30T18:08:37;18.60;99.90
935;DHT22;454;53.254;10.400;2022-08-30T18:11:05;18.60;99.90
935;DHT22;454;53.254;10.400;2022-08-30T18:13:32;18.50;99.90
935;DHT22;454;53.254;10.400;2022-08-30T18:16:00;18.40;99.90
935;DHT22;454;53.254;10.400;2022-08-30T18:18:26;18.40;99.90
935;DHT22;454;53.254;10.400;2022-08-30T18:20:54;18.30;99.90
935;DHT22;454;53.254;10.400;2022-08-30T18:23:20;18.20;99.90
935;DHT22;454;53.254;10.400;2022-08-30T18:25:54;18.20;99.90
935;DHT22;454;53.254;10.400;2022-08-30T18:28:21;18.10;99.90
935;DHT22;454;53.254;10.400;2022-08-30T18:30:48;18.00;99.90
935;DHT22;454;53.254;10.400;2022-08-30T18:33:15;17.90;99.90
935;DHT22;454;53.254;10.400;2022-08-30T18:35:42;17.90;99.90
935;DHT22;454;53.254;10.400;2022-08-30T18:38:09;17.80;99.90
935;DHT22;454;53.254;10.400;2022-08-30T18:40:36;17.80;99.90
935;DHT22;454;53.254;10.400;2022-08-30T18:43:04;17.70;99.90
935;DHT22;454;53.254;10.400;2022-08-30T18:45:34;17.70;99.90
935;DHT22;454;53.254;10.400;2022-08-30T18:48:01;17.60;99.90
935;DHT22;454;53.254;10.400;2022-08-30T18:50:28;17.60;99.90
935;DHT22;454;53.254;10.400;2022-08-30T18:52:55;17.50;99.90
935;DHT22;454;53.254;10.400;2022-08-30T18:55:21;17.40;99.90
935;DHT22;454;53.254;10.400;2022-08-30T18:57:48;17.40;99.90
935;DHT22;454;53.254;10.400;2022-08-30T19:00:16;17.30;99.90
935;DHT22;454;53.254;10.400;2022-08-30T19:02:43;17.30;99.90
935;DHT22;454;53.254;10.400;2022-08-30T19:05:12;17.20;99.90
935;DHT22;454;53.254;10.400;2022-08-30T19:07:40;17.20;99.90
935;DHT22;454;53.254;10.400;2022-08-30T19:10:08;17.10;99.90
935;DHT22;454;53.254;10.400;2022-08-30T19:12:35;17.10;99.90
935;DHT22;454;53.254;10.400;2022-08-30T19:15:04;17.00;99.90
935;DHT22;454;53.254;10.400;2022-08-30T19:17:32;17.00;99.90
935;DHT22;454;53.254;10.400;2022-08-30T19:19:59;16.90;99.90
935;DHT22;454;53.254;10.400;2022-08-30T19:22:26;16.90;99.90
935;DHT22;454;53.254;10.400;2022-08-30T19:24:53;16.80;99.90
935;DHT22;454;53.254;10.400;2022-08-30T19:27:19;16.80;99.90
935;DHT22;454;53.254;10.400;2022-08-30T19:29:46;16.80;99.90
935;DHT22;454;53.254;10.400;2022-08-30T19:32:13;16.70;99.90
935;DHT22;454;53.254;10.400;2022-08-30T19:34:41;16.70;99.90
935;DHT22;454;53.254;10.400;2022-08-30T19:37:08;16.60;99.90
935;DHT22;454;53.254;10.400;2022-08-30T19:39:34;16.60;99.90
935;DHT22;454;53.254;10.400;2022-08-30T19:42:02;16.50;99.90
935;DHT22;454;53.254;10.400;2022-08-30T19:44:28;16.50;99.90
935;DHT22;454;53.254;10.400;2022-08-30T19:46:55;16.50;99.90
935;DHT22;454;53.254;10.400;2022-08-30T19:49:24;16.40;99.90
935;DHT22;454;53.254;10.400;2022-08-30T19:51:52;16.30;99.90
935;DHT22;454;53.254;10.400;2022-08-30T19:54:18;16.40;99.90
935;DHT22;454;53.254;10.400;2022-08-30T19:56:45;16.30;99.90
935;DHT22;454;53.254;10.400;2022-08-30T19:59:12;16.30;99.90
935;DHT22;454;53.254;10.400;2022-08-30T20:01:38;16.20;99.90
935;DHT22;454;53.254;10.400;2022-08-30T20:04:05;16.20;99.90
935;DHT22;454;53.254;10.400;2022-08-30T20:06:32;16.10;99.90
935;DHT22;454;53.254;10.400;2022-08-30T20:09:01;16.10;99.90
935;DHT22;454;53.254;10.400;2022-08-30T20:11:29;16.10;99.90
935;DHT22;454;53.254;10.400;2022-08-30T20:13:56;16.00;99.90
935;DHT22;454;53.254;10.400;2022-08-30T20:16:23;16.00;99.90
935;DHT22;454;53.254;10.400;2022-08-30T20:18:50;15.90;99.90
935;DHT22;454;53.254;10.400;2022-08-30T20:21:18;15.90;99.90
935;DHT22;454;53.254;10.400;2022-08-30T20:23:44;15.90;99.90
935;DHT22;454;53.254;10.400;2022-08-30T20:26:13;15.80;99.90
935;DHT22;454;53.254;10.400;2022-08-30T20:28:40;15.80;99.90
935;DHT22;454;53.254;10.400;2022-08-30T20:31:08;15.70;99.90
935;DHT22;454;53.254;10.400;2022-08-30T20:33:36;15.70;99.90
935;DHT22;454;53.254;10.400;2022-08-30T20:36:04;15.70;99.90